createdAt,value
2018-04-16T00:01:12.624Z,29.87
2018-04-16T00:03:18.916Z,38.23
2018-04-16T00:05:28.656Z,31.43
2018-04-16T00:07:33.973Z,40.10
2018-04-16T00:09:44.115Z,39.13
2018-04-16T00:11:52.885Z,34.83
2018-04-16T00:14:02.233Z,28.40
2018-04-16T00:16:10.706Z,30.53
2018-04-16T00:18:19.227Z,28.43
2018-04-16T00:20:28.782Z,31.37
2018-04-16T00:22:37.508Z,34.43
2018-04-16T00:24:45.051Z,39.23
2018-04-16T00:26:54.387Z,42.27
2018-04-16T00:29:02.935Z,34.37
2018-04-16T00:31:07.821Z,40.43
2018-04-16T00:33:17.092Z,31.70
2018-04-16T00:35:26.344Z,36.00
2018-04-16T00:37:35.540Z,41.73
2018-04-16T00:39:44.642Z,38.80
2018-04-16T00:42:03.104Z,33.37
2018-04-16T00:44:12.376Z,34.67
2018-04-16T00:46:22.441Z,33.20
2018-04-16T00:48:31.595Z,36.37
2018-04-16T00:50:40.887Z,39.27
2018-04-16T00:52:50.919Z,36.93
2018-04-16T00:55:00.076Z,41.33
2018-04-16T00:57:09.205Z,41.83
2018-04-16T00:59:18.483Z,34.90
2018-04-16T01:01:27.747Z,37.93
2018-04-16T01:03:37.096Z,37.67
2018-04-16T01:05:46.327Z,41.60
2018-04-16T01:07:55.648Z,40.83
2018-04-16T01:10:05.495Z,39.87
2018-04-16T01:12:15.109Z,29.50
2018-04-16T01:17:02.150Z,35.00
2018-04-16T01:19:11.417Z,38.73
2018-04-16T01:21:20.469Z,38.47
2018-04-16T01:23:29.697Z,42.67
2018-04-16T01:25:38.874Z,50.63
2018-04-16T01:27:48.154Z,43.60
2018-04-16T01:29:57.162Z,38.90
2018-04-16T01:32:06.231Z,40.33
2018-04-16T01:34:16.113Z,40.53
2018-04-16T01:36:25.238Z,38.70
2018-04-16T01:38:35.141Z,39.03
2018-04-16T01:40:44.312Z,40.03
2018-04-16T01:42:53.344Z,41.73
2018-04-16T01:45:02.523Z,42.30
2018-04-16T01:47:11.681Z,38.53
2018-04-16T01:49:20.793Z,42.10
2018-04-16T01:51:29.806Z,39.53
2018-04-16T01:53:39.767Z,45.40
2018-04-16T01:55:49.707Z,42.60
2018-04-16T01:57:59.729Z,46.03
2018-04-16T02:00:08.958Z,41.37
2018-04-16T02:02:18.161Z,44.40
2018-04-16T02:04:27.332Z,37.30
2018-04-16T02:06:36.481Z,42.40
2018-04-16T02:11:25.767Z,39.20
2018-04-16T02:13:34.804Z,43.53
2018-04-16T02:15:43.955Z,40.63
2018-04-16T02:17:53.123Z,40.87
2018-04-16T02:20:18.218Z,39.17
2018-04-16T02:22:36.547Z,41.17
2018-04-16T02:24:45.678Z,45.37
2018-04-16T02:26:55.508Z,44.20
2018-04-16T02:29:04.495Z,44.93
2018-04-16T02:31:14.530Z,44.97
2018-04-16T02:33:23.461Z,43.80
2018-04-16T02:35:32.414Z,39.47
2018-04-16T02:37:41.530Z,37.93
2018-04-16T02:39:50.774Z,42.03
2018-04-16T02:41:59.913Z,41.87
2018-04-16T02:44:10.001Z,32.23
2018-04-16T02:46:19.234Z,38.23
2018-04-16T02:48:28.497Z,48.93
2018-04-16T02:53:14.619Z,41.13
2018-04-16T02:55:23.564Z,36.07
2018-04-16T02:57:32.686Z,41.50
2018-04-16T02:59:42.668Z,40.17
2018-04-16T03:01:51.759Z,44.80
2018-04-16T03:04:00.957Z,40.07
2018-04-16T03:06:10.228Z,43.53
2018-04-16T03:08:19.376Z,41.93
2018-04-16T03:10:28.331Z,40.70
2018-04-16T03:12:37.570Z,40.10
2018-04-16T03:14:46.710Z,38.13
2018-04-16T03:16:55.831Z,43.00
2018-04-16T03:19:05.023Z,38.73
2018-04-16T03:21:14.298Z,35.40
2018-04-16T03:23:24.330Z,38.53
2018-04-16T03:25:33.526Z,39.80
2018-04-16T03:27:42.864Z,35.53
2018-04-16T03:29:51.920Z,44.40
2018-04-16T03:32:01.106Z,42.17
2018-04-16T03:34:11.008Z,41.23
2018-04-16T03:36:20.192Z,46.77
2018-04-16T03:38:29.412Z,44.60
2018-04-16T03:43:17.170Z,41.90
2018-04-16T03:45:26.347Z,32.37
2018-04-16T03:47:36.287Z,36.10
2018-04-16T03:49:45.402Z,35.93
2018-04-16T03:54:29.738Z,30.97
2018-04-16T03:56:33.240Z,32.60
2018-04-16T03:58:36.884Z,33.07
2018-04-16T04:00:40.392Z,41.80
2018-04-16T04:02:43.931Z,31.37
2018-04-16T04:04:47.495Z,30.47
2018-04-16T04:06:51.043Z,31.87
2018-04-16T04:08:54.608Z,31.13
2018-04-16T04:10:58.129Z,36.03
2018-04-16T04:13:01.599Z,31.83
2018-04-16T04:15:06.073Z,32.65
2018-04-16T04:17:09.588Z,28.40
2018-04-16T04:19:13.100Z,31.33
2018-04-16T04:21:16.566Z,27.00
2018-04-16T04:23:31.896Z,28.67
2018-04-16T04:26:01.010Z,34.67
2018-04-16T04:28:16.145Z,34.00
2018-04-16T04:30:29.377Z,34.00
2018-04-16T04:32:32.954Z,34.83
2018-04-16T04:34:36.423Z,38.27
2018-04-16T04:36:39.895Z,58.00
2018-04-16T04:38:43.398Z,43.30
2018-04-16T04:40:46.942Z,39.67
2018-04-16T04:42:50.506Z,31.70
2018-04-16T04:44:54.508Z,47.73
2018-04-16T04:46:59.169Z,28.27
2018-04-16T04:49:03.096Z,39.27
2018-04-16T04:51:06.755Z,42.13
2018-04-16T04:53:10.273Z,40.37
2018-04-16T04:55:14.142Z,34.63
2018-04-16T04:57:17.723Z,29.97
2018-04-16T04:59:21.314Z,24.17
2018-04-16T05:01:24.863Z,39.23
2018-04-16T05:03:29.256Z,40.43
2018-04-16T05:05:32.868Z,42.23
2018-04-16T05:07:36.420Z,37.07
2018-04-16T05:09:39.966Z,31.27
2018-04-16T05:11:43.637Z,36.60
2018-04-16T05:13:47.214Z,34.63
2018-04-16T05:15:50.776Z,32.37
2018-04-16T05:17:55.215Z,33.80
2018-04-16T05:19:58.754Z,39.10
2018-04-16T05:22:02.384Z,40.57
2018-04-16T05:24:06.750Z,39.13
2018-04-16T05:26:10.343Z,46.23
2018-04-16T05:28:13.959Z,41.30
2018-04-16T05:30:17.627Z,41.10
2018-04-16T05:32:21.208Z,44.37
2018-04-16T05:34:24.791Z,38.33
2018-04-16T05:36:29.171Z,44.70
2018-04-16T05:38:32.721Z,54.13
2018-04-16T05:40:36.341Z,54.10
2018-04-16T05:42:39.941Z,50.83
2018-04-16T05:44:43.580Z,46.27
2018-04-16T05:46:47.221Z,33.27
2018-04-16T05:48:50.788Z,37.00
2018-04-16T05:50:54.411Z,32.73
2018-04-16T05:52:58.015Z,32.63
2018-04-16T05:55:01.647Z,30.93
2018-04-16T05:57:06.092Z,31.73
2018-04-16T05:59:10.500Z,44.73
2018-04-16T06:01:14.132Z,54.93
2018-04-16T06:03:17.760Z,51.20
2018-04-16T06:05:21.377Z,53.77
2018-04-16T06:07:24.946Z,54.07
2018-04-16T06:09:28.521Z,51.83
2018-04-16T06:11:32.595Z,50.37
2018-04-16T06:13:36.228Z,46.87
2018-04-16T06:15:39.840Z,52.57
2018-04-16T06:17:43.454Z,51.73
2018-04-16T06:19:47.060Z,56.77
2018-04-16T06:21:51.522Z,58.03
2018-04-16T06:23:55.068Z,59.03
2018-04-16T06:25:58.737Z,59.70
2018-04-16T06:28:02.362Z,44.77
2018-04-16T06:30:05.987Z,51.03
2018-04-16T06:32:10.369Z,54.10
2018-04-16T06:34:14.340Z,50.63
2018-04-16T06:36:17.904Z,56.07
2018-04-16T06:38:22.215Z,49.93
2018-04-16T06:40:26.218Z,45.27
2018-04-16T06:42:30.536Z,48.20
2018-04-16T06:44:34.867Z,52.53
2018-04-16T06:46:38.483Z,47.27
2018-04-16T06:48:42.035Z,45.77
2018-04-16T06:50:45.596Z,37.87
2018-04-16T06:52:49.211Z,41.80
2018-04-16T06:54:52.808Z,42.07
2018-04-16T06:56:56.502Z,36.63
2018-04-16T06:59:00.069Z,35.83
2018-04-16T07:01:03.691Z,39.27
2018-04-16T07:03:07.395Z,37.90
2018-04-16T07:05:11.770Z,37.17
2018-04-16T07:07:15.396Z,30.00
2018-04-16T07:09:18.999Z,36.90
2018-04-16T07:11:22.856Z,28.00
2018-04-16T07:13:28.081Z,31.67
2018-04-16T07:15:36.823Z,30.00
2018-04-16T07:17:42.599Z,26.80
2018-04-16T07:19:48.644Z,28.63
2018-04-16T07:21:52.231Z,25.47
2018-04-16T07:23:55.921Z,25.63
2018-04-16T07:25:59.472Z,22.93
2018-04-16T07:28:03.855Z,24.90
2018-04-16T07:30:07.459Z,25.10
2018-04-16T07:32:11.034Z,19.80
2018-04-16T07:34:14.583Z,25.37
2018-04-16T07:36:18.209Z,22.00
2018-04-16T07:38:21.816Z,21.33
2018-04-16T07:40:25.371Z,25.10
2018-04-16T07:42:30.140Z,18.33
2018-04-16T07:44:33.734Z,16.40
2018-04-16T07:46:37.322Z,15.10
2018-04-16T07:48:41.285Z,17.97
2018-04-16T07:50:45.599Z,15.17
2018-04-16T07:52:49.942Z,17.10
2018-04-16T07:54:53.975Z,15.83
2018-04-16T07:56:57.563Z,14.93
2018-04-16T07:59:01.105Z,14.60
2018-04-16T08:01:05.553Z,15.40
2018-04-16T08:03:09.158Z,16.10
2018-04-16T08:05:12.699Z,13.73
2018-04-16T08:07:17.104Z,15.33
2018-04-16T08:09:21.473Z,15.67
2018-04-16T08:11:25.107Z,14.73
2018-04-16T08:13:28.804Z,13.37
2018-04-16T08:15:32.405Z,11.97
2018-04-16T08:17:36.007Z,12.60
2018-04-16T08:19:39.710Z,12.93
2018-04-16T08:21:43.273Z,14.30
2018-04-16T08:23:46.882Z,15.90
2018-04-16T08:25:50.464Z,15.90
2018-04-16T08:27:54.083Z,15.57
2018-04-16T08:29:57.712Z,16.50
2018-04-16T08:32:02.116Z,14.13
2018-04-16T08:34:05.643Z,13.83
2018-04-16T08:36:09.225Z,12.93
2018-04-16T08:38:12.895Z,13.53
2018-04-16T08:40:16.471Z,14.10
2018-04-16T08:42:20.087Z,10.93
2018-04-16T08:44:23.678Z,12.40
2018-04-16T08:46:27.244Z,11.83
2018-04-16T08:48:30.858Z,12.73
2018-04-16T08:50:34.423Z,12.73
2018-04-16T08:52:38.034Z,15.23
2018-04-16T08:54:41.767Z,12.30
2018-04-16T08:56:45.341Z,12.83
2018-04-16T08:58:48.898Z,11.50
2018-04-16T09:00:53.236Z,12.83
2018-04-16T09:02:56.799Z,12.93
2018-04-16T09:05:00.463Z,10.60
2018-04-16T09:07:04.043Z,9.73
2018-04-16T09:09:07.641Z,10.37
2018-04-16T09:11:11.221Z,11.60
2018-04-16T09:13:14.794Z,9.30
2018-04-16T09:15:18.364Z,8.73
2018-04-16T09:17:21.989Z,8.43
2018-04-16T09:19:25.510Z,7.43
2018-04-16T09:21:29.102Z,6.20
2018-04-16T09:23:32.653Z,8.00
2018-04-16T09:25:36.283Z,6.07
2018-04-16T09:27:40.635Z,6.80
2018-04-16T09:29:44.197Z,10.53
2018-04-16T09:31:48.634Z,8.17
2018-04-16T09:33:52.257Z,11.97
2018-04-16T09:35:55.820Z,9.87
2018-04-16T09:37:59.431Z,11.83
2018-04-16T09:40:03.224Z,8.63
2018-04-16T09:42:06.733Z,12.67
2018-04-16T09:44:10.335Z,12.00
2018-04-16T09:46:13.918Z,16.30
2018-04-16T09:48:17.491Z,12.30
2018-04-16T09:50:21.891Z,12.20
2018-04-16T09:52:25.510Z,12.63
2018-04-16T09:54:29.108Z,12.47
2018-04-16T09:56:33.199Z,14.13
2018-04-16T09:58:37.560Z,14.80
2018-04-16T10:00:46.804Z,15.43
2018-04-16T10:02:56.075Z,16.60
2018-04-16T10:04:59.679Z,12.67
2018-04-16T10:07:03.385Z,13.07
2018-04-16T10:09:06.947Z,13.93
2018-04-16T10:11:10.652Z,15.17
2018-04-16T10:13:15.064Z,14.77
2018-04-16T10:15:19.467Z,13.30
2018-04-16T10:17:23.076Z,14.47
2018-04-16T10:19:26.657Z,13.47
2018-04-16T10:21:30.256Z,14.17
2018-04-16T10:23:33.893Z,12.70
2018-04-16T10:25:38.270Z,13.17
2018-04-16T10:27:41.869Z,14.27
2018-04-16T10:29:45.475Z,11.87
2018-04-16T10:31:49.018Z,14.23
2018-04-16T10:33:52.609Z,16.07
2018-04-16T10:35:56.124Z,10.73
2018-04-16T10:37:59.710Z,9.43
2018-04-16T10:40:03.591Z,12.40
2018-04-16T10:42:07.205Z,7.00
2018-04-16T10:44:10.786Z,10.80
2018-04-16T10:46:14.370Z,8.70
2018-04-16T10:48:18.759Z,9.07
2018-04-16T10:50:22.510Z,8.87
2018-04-16T10:52:26.044Z,8.63
2018-04-16T10:54:29.713Z,13.27
2018-04-16T10:56:33.293Z,9.33
2018-04-16T10:58:36.922Z,11.40
2018-04-16T11:00:40.497Z,8.93
2018-04-16T11:02:44.123Z,10.37
2018-04-16T11:04:47.705Z,10.23
2018-04-16T11:06:51.241Z,9.37
2018-04-16T11:08:54.817Z,13.60
2018-04-16T11:10:58.406Z,11.10
2018-04-16T11:13:02.046Z,8.53
2018-04-16T11:15:05.624Z,9.77
2018-04-16T11:17:09.884Z,10.87
2018-04-16T11:19:13.571Z,9.27
2018-04-16T11:21:17.133Z,6.33
2018-04-16T11:23:20.731Z,6.17
2018-04-16T11:25:24.424Z,6.93
2018-04-16T11:27:28.103Z,8.27
2018-04-16T11:29:31.707Z,8.13
2018-04-16T11:31:35.323Z,8.33
2018-04-16T11:33:38.939Z,8.80
2018-04-16T11:35:43.252Z,9.97
2018-04-16T11:37:46.981Z,10.57
2018-04-16T11:39:50.519Z,13.60
2018-04-16T11:41:55.222Z,9.37
2018-04-16T11:43:58.826Z,13.27
2018-04-16T11:46:02.343Z,11.20
2018-04-16T11:48:06.674Z,8.97
2018-04-16T11:50:11.047Z,9.77
2018-04-16T11:52:14.571Z,7.37
2018-04-16T11:54:18.950Z,12.60
2018-04-16T11:56:26.897Z,8.67
2018-04-16T11:58:32.219Z,12.03
2018-04-16T12:00:41.051Z,6.47
2018-04-16T12:02:46.400Z,10.37
2018-04-16T12:04:51.998Z,9.50
2018-04-16T12:06:59.455Z,8.70
2018-04-16T12:09:05.078Z,12.03
2018-04-16T12:11:11.345Z,9.53
2018-04-16T12:13:16.898Z,7.50
2018-04-16T12:15:21.454Z,9.83
2018-04-16T12:17:26.328Z,9.03
2018-04-16T12:19:33.019Z,5.43
2018-04-16T12:21:37.730Z,6.90
2018-04-16T12:23:41.356Z,6.50
2018-04-16T12:25:44.994Z,6.43
2018-04-16T12:27:49.316Z,9.63
2018-04-16T12:29:54.496Z,7.50
2018-04-16T12:31:58.090Z,10.13
2018-04-16T12:34:04.196Z,6.17
2018-04-16T12:36:11.770Z,8.83
2018-04-16T12:38:15.736Z,7.23
2018-04-16T12:40:19.297Z,7.97
2018-04-16T12:42:28.234Z,8.43
2018-04-16T12:44:35.576Z,4.90
2018-04-16T12:46:43.746Z,7.23
2018-04-16T12:48:48.709Z,9.37
2018-04-16T12:50:55.435Z,7.83
2018-04-16T12:52:59.810Z,8.67
2018-04-16T12:55:07.292Z,5.87
2018-04-16T12:57:15.059Z,7.90
2018-04-16T12:59:23.427Z,6.83
2018-04-16T13:01:29.209Z,8.80
2018-04-16T13:03:35.608Z,6.17
2018-04-16T13:05:43.714Z,6.70
2018-04-16T13:07:48.378Z,6.00
2018-04-16T13:09:55.223Z,6.53
2018-04-16T13:11:59.619Z,6.23
2018-04-16T13:14:05.451Z,9.80
2018-04-16T13:16:12.560Z,6.77
2018-04-16T13:18:16.911Z,7.30
2018-04-16T13:20:20.495Z,6.67
2018-04-16T13:22:29.179Z,7.67
2018-04-16T13:24:36.686Z,9.50
2018-04-16T13:26:43.713Z,10.30
2018-04-16T13:28:48.655Z,8.63
2018-04-16T13:30:55.486Z,8.40
2018-04-16T13:33:03.226Z,6.73
2018-04-16T13:35:07.687Z,6.30
2018-04-16T13:37:11.342Z,9.30
2018-04-16T13:39:17.163Z,6.67
2018-04-16T13:41:20.711Z,5.57
2018-04-16T13:43:29.243Z,6.93
2018-04-16T13:45:33.357Z,6.20
2018-04-16T13:47:38.831Z,7.83
2018-04-16T13:49:47.678Z,9.77
2018-04-16T13:51:53.370Z,8.97
2018-04-16T13:54:02.608Z,7.27
2018-04-16T13:56:09.374Z,10.40
2018-04-16T13:58:13.710Z,6.43
2018-04-16T14:00:17.979Z,7.57
2018-04-16T14:02:24.416Z,8.50
2018-04-16T14:04:28.768Z,10.03
2018-04-16T14:06:38.675Z,6.70
2018-04-16T14:08:47.965Z,6.93
2018-04-16T14:10:55.006Z,7.00
2018-04-16T14:13:01.056Z,7.17
2018-04-16T14:15:07.914Z,8.43
2018-04-16T14:17:15.035Z,6.63
2018-04-16T14:19:20.440Z,9.93
2018-04-16T14:21:27.883Z,5.33
2018-04-16T14:23:31.410Z,9.57
2018-04-16T14:25:38.535Z,5.53
2018-04-16T14:27:45.545Z,6.00
2018-04-16T14:29:50.716Z,6.57
2018-04-16T14:31:55.096Z,6.27
2018-04-16T14:33:59.484Z,7.47
2018-04-16T14:36:05.308Z,6.93
2018-04-16T14:38:10.155Z,3.50
2018-04-16T14:40:13.774Z,13.03
2018-04-16T14:42:18.154Z,13.03
2018-04-16T14:44:21.744Z,11.60
2018-04-16T14:46:25.352Z,7.27
2018-04-16T14:48:28.863Z,9.83
2018-04-16T14:50:32.410Z,7.27
2018-04-16T14:52:36.063Z,8.17
2018-04-16T14:54:39.597Z,6.23
2018-04-16T14:56:43.950Z,7.73
2018-04-16T14:58:47.555Z,12.70
2018-04-16T15:00:51.184Z,12.10
2018-04-16T15:02:54.789Z,7.97
2018-04-16T15:04:59.212Z,14.40
2018-04-16T15:07:02.834Z,9.03
2018-04-16T15:09:06.560Z,10.70
2018-04-16T15:11:10.172Z,11.93
2018-04-16T15:13:14.556Z,12.83
2018-04-16T15:15:18.148Z,9.40
2018-04-16T15:17:22.485Z,8.33
2018-04-16T15:19:26.084Z,10.70
2018-04-16T15:21:29.596Z,11.40
2018-04-16T15:23:33.535Z,12.87
2018-04-16T15:25:37.888Z,10.77
2018-04-16T15:27:41.498Z,11.83
2018-04-16T15:29:45.092Z,10.80
2018-04-16T15:31:49.472Z,9.50
2018-04-16T15:33:53.038Z,10.50
2018-04-16T15:35:56.630Z,8.97
2018-04-16T15:38:00.207Z,9.83
2018-04-16T15:40:04.002Z,12.53
2018-04-16T15:42:08.417Z,7.33
2018-04-16T15:44:12.222Z,9.63
2018-04-16T15:46:16.625Z,9.73
2018-04-16T15:48:20.264Z,9.70
2018-04-16T15:50:24.645Z,11.10
2018-04-16T15:52:28.226Z,9.00
2018-04-16T15:54:32.215Z,12.57
2018-04-16T15:56:35.833Z,9.33
2018-04-16T15:58:39.384Z,8.80
2018-04-16T16:00:42.940Z,10.47
2018-04-16T16:02:46.473Z,10.30
2018-04-16T16:04:50.165Z,7.23
2018-04-16T16:06:54.480Z,8.20
2018-04-16T16:08:58.044Z,6.93
2018-04-16T16:11:01.644Z,8.50
2018-04-16T16:13:05.143Z,8.80
2018-04-16T16:15:09.274Z,10.23
2018-04-16T16:17:12.805Z,9.40
2018-04-16T16:19:16.374Z,9.33
2018-04-16T16:21:19.931Z,10.10
2018-04-16T16:23:23.499Z,6.53
2018-04-16T16:25:27.829Z,9.27
2018-04-16T16:27:31.411Z,6.73
2018-04-16T16:29:35.716Z,10.70
2018-04-16T16:31:40.073Z,10.17
2018-04-16T16:33:43.676Z,8.73
2018-04-16T16:35:47.306Z,10.13
2018-04-16T16:37:50.844Z,6.17
2018-04-16T16:39:55.216Z,10.23
2018-04-16T16:41:58.944Z,11.27
2018-04-16T16:44:05.901Z,11.33
2018-04-16T16:46:09.691Z,11.33
2018-04-16T16:48:13.297Z,8.33
2018-04-16T16:50:16.811Z,8.47
2018-04-16T16:52:21.128Z,8.90
2018-04-16T16:54:25.453Z,11.90
2018-04-16T16:56:29.010Z,10.40
2018-04-16T16:58:33.398Z,7.43
2018-04-16T17:00:36.908Z,7.63
2018-04-16T17:02:40.597Z,7.97
2018-04-16T17:04:44.147Z,7.17
2018-04-16T17:06:48.438Z,8.80
2018-04-16T17:08:52.337Z,9.30
2018-04-16T17:10:55.856Z,9.97
2018-04-16T17:13:00.186Z,9.87
2018-04-16T17:15:03.750Z,7.03
2018-04-16T17:17:07.288Z,8.60
2018-04-16T17:19:11.247Z,8.73
2018-04-16T17:21:14.819Z,5.70
2018-04-16T17:23:18.337Z,6.63
2018-04-16T17:25:21.908Z,9.30
2018-04-16T17:27:25.457Z,7.27
2018-04-16T17:29:29.099Z,10.10
2018-04-16T17:31:32.662Z,9.27
2018-04-16T17:33:36.305Z,5.53
2018-04-16T17:35:39.815Z,8.40
2018-04-16T17:37:43.372Z,8.90
2018-04-16T17:39:47.413Z,6.30
2018-04-16T17:41:50.927Z,8.03
2018-04-16T17:43:55.213Z,6.23
2018-04-16T17:45:59.127Z,9.07
2018-04-16T17:48:02.622Z,7.73
2018-04-16T17:50:06.155Z,6.43
2018-04-16T17:52:09.723Z,6.07
2018-04-16T17:54:13.215Z,8.03
2018-04-16T17:56:16.719Z,6.97
2018-04-16T17:58:21.572Z,7.70
2018-04-16T18:00:25.089Z,8.60
2018-04-16T18:02:28.676Z,9.00
2018-04-16T18:04:32.374Z,10.20
2018-04-16T18:06:35.934Z,7.80
2018-04-16T18:08:40.214Z,6.90
2018-04-16T18:10:43.747Z,6.33
2018-04-16T18:12:47.991Z,8.27
2018-04-16T18:14:51.575Z,8.67
2018-04-16T18:16:55.130Z,9.13
2018-04-16T18:18:58.706Z,9.13
2018-04-16T18:21:02.279Z,5.43
2018-04-16T18:23:05.915Z,7.80
2018-04-16T18:25:09.405Z,9.27
2018-04-16T18:27:12.911Z,5.63
2018-04-16T18:29:16.519Z,13.77
2018-04-16T18:31:21.211Z,14.77
2018-04-16T18:33:24.812Z,9.23
2018-04-16T18:35:28.356Z,10.67
2018-04-16T18:37:32.018Z,8.73
2018-04-16T18:39:35.518Z,13.53
2018-04-16T18:41:39.156Z,13.30
2018-04-16T18:43:42.714Z,15.23
2018-04-16T18:45:46.219Z,14.63
2018-04-16T18:47:50.519Z,19.03
2018-04-16T18:49:54.091Z,17.00
2018-04-16T18:51:57.695Z,26.07
2018-04-16T18:54:01.207Z,19.67
2018-04-16T18:56:04.827Z,31.90
2018-04-16T18:58:08.399Z,23.17
2018-04-16T19:00:12.716Z,19.43
2018-04-16T19:02:16.379Z,22.23
2018-04-16T19:04:20.029Z,22.53
2018-04-16T19:06:24.803Z,21.30
2018-04-16T19:08:28.311Z,20.50
2018-04-16T19:10:31.819Z,17.47
2018-04-16T19:12:35.366Z,15.40
2018-04-16T19:14:38.951Z,17.30
2018-04-16T19:16:43.314Z,15.40
2018-04-16T19:18:46.891Z,13.70
2018-04-16T19:20:55.965Z,11.80
2018-04-16T19:23:00.307Z,13.10
2018-04-16T19:25:03.913Z,9.50
2018-04-16T19:27:13.926Z,10.80
2018-04-16T19:29:18.299Z,16.00
2018-04-16T19:31:21.876Z,9.60
2018-04-16T19:33:30.952Z,12.53
2018-04-16T19:35:35.283Z,9.10
2018-04-16T19:37:38.836Z,11.90
2018-04-16T19:39:42.339Z,10.77
2018-04-16T19:41:51.511Z,6.97
2018-04-16T19:43:55.038Z,10.20
2018-04-16T19:45:58.567Z,7.50
2018-04-16T19:48:02.112Z,8.80
2018-04-16T19:50:05.727Z,11.20
2018-04-16T19:52:09.223Z,9.37
2018-04-16T19:54:12.762Z,7.33
2018-04-16T19:56:22.793Z,7.03
2018-04-16T19:58:26.302Z,4.87
2018-04-16T20:00:30.806Z,6.47
2018-04-16T20:02:39.954Z,4.20
2018-04-16T20:04:44.319Z,6.40
2018-04-16T20:06:47.811Z,9.97
2018-04-16T20:08:52.535Z,7.87
2018-04-16T20:10:56.063Z,6.73
2018-04-16T20:13:00.174Z,9.07
2018-04-16T20:15:03.893Z,9.43
2018-04-16T20:17:08.167Z,5.97
2018-04-16T20:19:11.772Z,8.80
2018-04-16T20:21:15.274Z,6.73
2018-04-16T20:23:19.526Z,8.93
2018-04-16T20:25:23.101Z,9.80
2018-04-16T20:27:27.379Z,7.57
2018-04-16T20:29:30.880Z,9.60
2018-04-16T20:31:34.590Z,6.23
2018-04-16T20:33:38.090Z,5.53
2018-04-16T20:35:41.711Z,5.17
2018-04-16T20:37:45.281Z,9.87
2018-04-16T20:39:48.788Z,5.37
2018-04-16T20:41:53.108Z,6.27
2018-04-16T20:43:56.732Z,8.17
2018-04-16T20:46:00.230Z,6.30
2018-04-16T20:48:03.795Z,4.23
2018-04-16T20:50:08.134Z,6.17
2018-04-16T20:52:11.698Z,6.30
2018-04-16T20:54:15.987Z,3.47
2018-04-16T20:56:19.727Z,4.50
2018-04-16T20:58:23.251Z,8.43
2018-04-16T21:00:26.792Z,4.17
2018-04-16T21:02:30.435Z,6.97
2018-04-16T21:04:34.002Z,4.57
2018-04-16T21:06:38.372Z,7.60
2018-04-16T21:08:41.984Z,8.00
2018-04-16T21:10:45.547Z,4.97
2018-04-16T21:12:49.115Z,4.43
2018-04-16T21:14:55.494Z,6.67
2018-04-16T21:17:00.590Z,6.27
2018-04-16T21:19:06.531Z,3.70
2018-04-16T21:21:13.144Z,5.03
2018-04-16T21:23:21.613Z,8.40
2018-04-16T21:25:27.057Z,6.57
2018-04-16T21:27:36.178Z,5.77
2018-04-16T21:29:45.164Z,2.47
2018-04-16T21:31:54.108Z,3.73
2018-04-16T21:33:59.369Z,5.30
2018-04-16T21:36:03.838Z,3.97
2018-04-16T21:38:08.292Z,5.30
2018-04-16T21:40:16.215Z,3.23
2018-04-16T21:42:19.814Z,4.43
2018-04-16T21:44:23.678Z,4.43
2018-04-16T21:46:29.269Z,4.43
2018-04-16T21:48:34.971Z,4.50
2018-04-16T21:50:42.157Z,5.17
2018-04-16T21:52:48.846Z,10.07
2018-04-16T21:54:52.540Z,12.70
2018-04-16T21:56:57.073Z,4.77
2018-04-16T21:59:05.981Z,9.87
2018-04-16T22:01:11.417Z,7.37
2018-04-16T22:03:15.898Z,4.30
2018-04-16T22:05:19.627Z,7.27
2018-04-16T22:07:23.595Z,4.87
2018-04-16T22:09:31.411Z,6.27
2018-04-16T22:11:37.274Z,6.70
2018-04-16T22:13:41.557Z,4.60
2018-04-16T22:15:49.652Z,5.07
2018-04-16T22:17:56.798Z,4.07
2018-04-16T22:20:05.715Z,3.43
2018-04-16T22:22:12.202Z,4.33
2018-04-16T22:24:20.089Z,4.00
2018-04-16T22:26:24.474Z,2.83
2018-04-16T22:28:33.010Z,6.57
2018-04-16T22:30:39.904Z,2.53
2018-04-16T22:32:49.066Z,5.10
2018-04-16T22:34:57.921Z,5.13
2018-04-16T22:37:02.624Z,5.80
2018-04-16T22:39:10.640Z,5.73
2018-04-16T22:41:19.498Z,7.77
2018-04-16T22:43:23.180Z,6.60
2018-04-16T22:45:29.878Z,5.13
2018-04-16T22:47:34.711Z,6.70
2018-04-16T22:49:38.226Z,3.40
2018-04-16T22:51:42.724Z,9.33
2018-04-16T22:53:46.259Z,4.67
2018-04-16T22:55:50.528Z,7.93
2018-04-16T22:57:54.087Z,5.83
2018-04-16T22:59:57.783Z,5.63
2018-04-16T23:02:01.473Z,5.77
2018-04-16T23:04:05.072Z,3.60
2018-04-16T23:06:08.597Z,5.43
2018-04-16T23:08:16.781Z,5.60
2018-04-16T23:10:20.376Z,5.13
2018-04-16T23:12:23.950Z,5.30
2018-04-16T23:14:27.499Z,9.73
2018-04-16T23:16:31.043Z,5.60
2018-04-16T23:18:38.520Z,4.23
2018-04-16T23:20:49.376Z,5.00
2018-04-16T23:22:54.694Z,6.40
2018-04-16T23:24:58.319Z,6.20
2018-04-16T23:27:01.875Z,8.13
2018-04-16T23:29:05.451Z,6.27
2018-04-16T23:31:09.055Z,6.60
2018-04-16T23:33:12.609Z,8.93
2018-04-16T23:35:16.142Z,11.70
2018-04-16T23:37:19.787Z,6.20
2018-04-16T23:39:24.070Z,8.93
2018-04-16T23:41:27.675Z,11.17
2018-04-16T23:43:32.085Z,10.50
2018-04-16T23:45:36.502Z,16.73
2018-04-16T23:47:40.151Z,4.53
2018-04-16T23:49:43.767Z,6.80
2018-04-16T23:51:47.314Z,11.47
2018-04-16T23:53:51.842Z,7.23
2018-04-16T23:55:56.151Z,5.30
2018-04-16T23:57:59.654Z,7.53
